Time;durP1;ratioP1;P1;durP2;ratioP2;P2;SDS_P1;SDS_P2;PMS_P1;PMS_P2;Temp;Humidity;BMP_temperature;BMP_pressure;BME280_temperature;BME280_humidity;BME280_pressure;Samples;Min_cycle;Max_cycle;Signal;HPM_P1;HPM_P2
2023/01/25 00:02:10;;;;;;;29.40;17.13;;;4.20;99.90;;;;;;6198009;23;20160;-84
2023/01/25 00:04:37;;;;;;;21.10;13.20;;;4.20;99.90;;;;;;6198712;23;20524;-85
2023/01/25 00:07:05;;;;;;;32.83;17.67;;;3.90;99.90;;;;;;6198616;23;20187;-86
2023/01/25 00:09:32;;;;;;;32.55;20.60;;;3.80;99.90;;;;;;6196248;23;20343;-87
2023/01/25 00:11:59;;;;;;;32.08;18.95;;;3.80;99.90;;;;;;6223285;23;20186;-84
2023/01/25 00:14:29;;;;;;;20.20;12.23;;;3.80;99.90;;;;;;6222417;23;20190;-85
2023/01/25 00:16:56;;;;;;;23.67;12.50;;;3.70;99.90;;;;;;6222775;23;20193;-85
2023/01/25 00:19:25;;;;;;;20.00;12.65;;;3.70;99.90;;;;;;6223321;23;20545;-85
2023/01/25 00:21:52;;;;;;;18.42;10.95;;;3.60;99.90;;;;;;6196706;23;20214;-85
2023/01/25 00:24:21;;;;;;;19.27;12.35;;;3.60;99.90;;;;;;6222807;23;20497;-85
2023/01/25 00:26:49;;;;;;;19.05;12.85;;;3.60;99.90;;;;;;6228217;23;20166;-87
2023/01/25 00:29:16;;;;;;;25.77;14.93;;;3.60;99.90;;;;;;6205515;23;20179;-87
2023/01/25 00:32:21;;;;;;;21.63;16.00;;;3.60;99.90;;;;;;6211930;23;20198;-88
2023/01/25 00:34:52;;;;;;;26.10;19.08;;;3.50;99.90;;;;;;6211921;23;20174;-86
2023/01/25 00:37:41;;;;;;;28.85;16.05;;;3.50;99.90;;;;;;6226920;23;20179;-84
2023/01/25 00:40:10;;;;;;;28.33;15.95;;;3.50;99.90;;;;;;6221555;23;20244;-84
2023/01/25 00:42:38;;;;;;;26.83;15.32;;;3.60;99.90;;;;;;6195530;23;20167;-83
2023/01/25 00:45:05;;;;;;;26.63;14.02;;;3.60;99.90;;;;;;6221081;23;20197;-86
2023/01/25 00:47:33;;;;;;;27.27;14.40;;;3.70;99.90;;;;;;6220030;23;20181;-85
2023/01/25 00:50:00;;;;;;;25.27;14.32;;;3.60;99.90;;;;;;6219500;23;20230;-84
2023/01/25 00:52:27;;;;;;;25.02;14.70;;;3.80;99.90;;;;;;6219284;23;20517;-84
2023/01/25 00:54:55;;;;;;;25.88;16.73;;;4.10;99.90;;;;;;6220488;23;20264;-84
2023/01/25 00:57:22;;;;;;;23.90;17.02;;;4.10;99.90;;;;;;6193518;23;20180;-86
2023/01/25 00:59:49;;;;;;;26.25;16.05;;;4.20;99.90;;;;;;6220424;23;20186;-85
2023/01/25 01:02:16;;;;;;;25.30;15.43;;;4.10;99.90;;;;;;6193588;23;20232;-85
2023/01/25 01:04:43;;;;;;;27.20;16.95;;;3.80;99.90;;;;;;6219867;23;20190;-84
2023/01/25 01:07:12;;;;;;;21.38;13.30;;;3.70;99.90;;;;;;6219862;23;20237;-86
2023/01/25 01:09:39;;;;;;;20.25;11.40;;;3.80;99.90;;;;;;6220120;23;20174;-85
2023/01/25 01:12:06;;;;;;;17.52;11.88;;;4.00;99.90;;;;;;6192852;23;20187;-85
2023/01/25 01:14:37;;;;;;;17.80;11.70;;;3.90;99.90;;;;;;6193685;23;20229;-85
2023/01/25 01:17:04;;;;;;;32.75;19.40;;;4.00;99.90;;;;;;6194393;23;20377;-85
2023/01/25 01:19:32;;;;;;;27.08;13.93;;;4.00;99.90;;;;;;6219397;23;20186;-85
2023/01/25 01:21:58;;;;;;;25.05;14.82;;;4.20;99.90;;;;;;6219808;23;20262;-85
2023/01/25 01:24:25;;;;;;;21.30;14.10;;;4.30;99.90;;;;;;6192903;23;20339;-84
2023/01/25 01:26:53;;;;;;;23.08;13.30;;;4.70;99.90;;;;;;6219582;23;20190;-84
2023/01/25 01:29:20;;;;;;;26.48;15.25;;;4.70;99.90;;;;;;6220266;23;20233;-85
2023/01/25 01:31:50;;;;;;;23.55;15.60;;;4.40;99.90;;;;;;6220470;23;20217;-86
2023/01/25 01:34:19;;;;;;;22.85;15.48;;;4.60;99.90;;;;;;6218665;23;20218;-87
2023/01/25 01:36:47;;;;;;;23.33;14.60;;;4.40;99.90;;;;;;6223027;23;20190;-86
2023/01/25 01:39:14;;;;;;;21.38;17.55;;;4.30;99.90;;;;;;6220054;23;20197;-86
2023/01/25 01:41:41;;;;;;;26.40;15.88;;;4.30;99.90;;;;;;6220366;23;20171;-87
2023/01/25 01:44:21;;;;;;;20.45;14.27;;;4.30;99.90;;;;;;6220767;23;20499;-86
2023/01/25 01:46:57;;;;;;;17.40;13.38;;;3.90;99.90;;;;;;6219664;23;20589;-88
2023/01/25 01:49:28;;;;;;;24.65;18.27;;;4.00;99.90;;;;;;6192422;23;20439;-86
2023/01/25 01:51:58;;;;;;;24.45;15.65;;;4.30;99.90;;;;;;6219425;23;20193;-88
2023/01/25 01:54:30;;;;;;;20.00;14.27;;;4.50;99.90;;;;;;6193331;23;20531;-87
2023/01/25 01:57:01;;;;;;;26.95;15.82;;;4.50;99.90;;;;;;6219676;23;20383;-86
2023/01/25 01:59:44;;;;;;;28.40;17.48;;;4.60;99.90;;;;;;6192856;23;20237;-86
2023/01/25 02:02:13;;;;;;;30.40;18.40;;;4.60;99.90;;;;;;6220287;23;20182;-85
2023/01/25 02:04:44;;;;;;;23.27;15.88;;;4.40;99.90;;;;;;6222428;23;20246;-85
2023/01/25 02:07:20;;;;;;;25.98;15.55;;;4.30;99.90;;;;;;6222491;23;20419;-85
2023/01/25 02:09:49;;;;;;;22.77;15.55;;;4.30;99.90;;;;;;6193505;23;20413;-83
2023/01/25 02:12:18;;;;;;;25.05;15.05;;;4.10;99.90;;;;;;6222256;23;20540;-83
2023/01/25 02:14:50;;;;;;;25.80;15.15;;;4.00;99.90;;;;;;6224074;23;20178;-84
2023/01/25 02:17:23;;;;;;;20.45;13.20;;;3.90;99.90;;;;;;6235980;23;20171;-85
2023/01/25 02:20:16;;;;;;;21.48;15.40;;;3.80;99.90;;;;;;6235153;23;20504;-87
2023/01/25 02:23:00;;;;;;;23.98;13.68;;;3.70;99.90;;;;;;6235632;23;20208;-86
2023/01/25 02:25:27;;;;;;;21.65;12.45;;;3.80;99.90;;;;;;6209847;23;20169;-86
2023/01/25 02:28:05;;;;;;;19.70;12.40;;;3.90;99.90;;;;;;6233970;23;20167;-85
2023/01/25 02:30:34;;;;;;;23.40;13.40;;;3.80;99.90;;;;;;6209920;23;20179;-86
2023/01/25 02:33:01;;;;;;;20.40;13.07;;;4.10;99.90;;;;;;6235412;23;20348;-85
2023/01/25 02:35:37;;;;;;;26.20;15.80;;;4.20;99.90;;;;;;6208084;23;20170;-87
2023/01/25 02:38:05;;;;;;;23.13;15.25;;;4.20;99.90;;;;;;6235624;23;20268;-87
2023/01/25 02:40:40;;;;;;;17.50;11.70;;;3.70;99.90;;;;;;6233169;23;20176;-83
2023/01/25 02:43:07;;;;;;;22.83;13.57;;;3.50;99.90;;;;;;6234413;23;20179;-85
2023/01/25 02:45:36;;;;;;;23.75;15.10;;;3.60;99.90;;;;;;6208643;23;20170;-85
2023/01/25 02:48:04;;;;;;;25.00;16.63;;;3.50;99.90;;;;;;6233742;23;20181;-82
2023/01/25 02:50:34;;;;;;;25.45;15.48;;;3.50;99.90;;;;;;6199812;23;20381;-87
2023/01/25 02:53:01;;;;;;;28.17;18.63;;;3.40;99.90;;;;;;6217339;23;20206;-83
2023/01/25 02:55:28;;;;;;;26.40;18.27;;;3.40;99.90;;;;;;6191503;23;20186;-85
2023/01/25 02:57:55;;;;;;;25.13;14.93;;;3.50;99.90;;;;;;6217161;23;20195;-84
2023/01/25 03:00:30;;;;;;;28.05;15.30;;;3.60;99.90;;;;;;6219870;23;20186;-85
2023/01/25 03:02:57;;;;;;;23.75;15.48;;;3.80;99.90;;;;;;6219888;23;20168;-84
2023/01/25 03:05:26;;;;;;;22.05;15.95;;;4.00;99.90;;;;;;6220094;23;20227;-83
2023/01/25 03:07:53;;;;;;;24.13;14.48;;;4.10;99.90;;;;;;6220709;23;20186;-84
2023/01/25 03:10:20;;;;;;;30.58;16.23;;;4.10;99.90;;;;;;6219700;23;20495;-83
2023/01/25 03:12:46;;;;;;;22.85;15.80;;;3.90;99.90;;;;;;6194488;23;20206;-82
2023/01/25 03:15:13;;;;;;;27.75;17.48;;;3.90;99.90;;;;;;6219412;23;20192;-84
2023/01/25 03:17:40;;;;;;;30.80;18.85;;;4.00;99.90;;;;;;6220854;23;20479;-83
2023/01/25 03:20:11;;;;;;;25.88;15.40;;;3.70;99.90;;;;;;6220445;23;20197;-85
2023/01/25 03:22:45;;;;;;;31.95;16.88;;;3.40;99.90;;;;;;6195631;23;20213;-84
2023/01/25 03:25:12;;;;;;;34.90;23.10;;;3.40;99.90;;;;;;6194880;23;20543;-83
2023/01/25 03:27:39;;;;;;;35.30;21.52;;;3.30;99.90;;;;;;6223073;23;20510;-83
2023/01/25 03:30:07;;;;;;;28.45;17.58;;;3.40;99.90;;;;;;6222647;23;20225;-84
2023/01/25 03:32:33;;;;;;;25.42;15.05;;;3.30;99.90;;;;;;6220197;23;20244;-84
2023/01/25 03:35:00;;;;;;;36.78;17.25;;;3.30;99.90;;;;;;6220267;23;20214;-84
2023/01/25 03:37:30;;;;;;;24.25;15.95;;;3.20;99.90;;;;;;6219935;23;20522;-84
2023/01/25 03:39:57;;;;;;;32.80;16.85;;;3.30;99.90;;;;;;6220320;23;20633;-84
2023/01/25 03:42:24;;;;;;;26.88;16.45;;;3.20;99.90;;;;;;6195203;23;20186;-86
2023/01/25 03:44:51;;;;;;;26.90;16.15;;;3.10;99.90;;;;;;6220067;23;20187;-85
2023/01/25 03:47:18;;;;;;;22.98;13.20;;;3.30;99.90;;;;;;6193220;23;20179;-85
2023/01/25 03:49:45;;;;;;;31.92;16.42;;;3.40;99.90;;;;;;6218467;23;20253;-85
2023/01/25 03:52:12;;;;;;;30.02;15.50;;;3.70;99.90;;;;;;6193469;23;20517;-84
2023/01/25 03:54:39;;;;;;;32.92;17.83;;;4.10;99.90;;;;;;6220720;23;20221;-83
2023/01/25 03:57:06;;;;;;;29.38;18.10;;;4.10;99.90;;;;;;6193812;23;20230;-86
2023/01/25 03:59:33;;;;;;;26.55;15.63;;;3.90;99.90;;;;;;6193606;23;20190;-85
2023/01/25 04:02:01;;;;;;;28.55;16.15;;;3.60;99.90;;;;;;6204091;23;20598;-88
2023/01/25 04:04:28;;;;;;;31.70;16.75;;;3.50;99.90;;;;;;6198198;23;20261;-87
2023/01/25 04:06:55;;;;;;;27.98;17.35;;;3.30;99.90;;;;;;6222954;23;20188;-85
2023/01/25 04:09:22;;;;;;;35.22;16.30;;;3.40;99.90;;;;;;6220766;23;20534;-87
2023/01/25 04:11:50;;;;;;;26.60;17.23;;;3.40;99.90;;;;;;6193349;23;20178;-86
2023/01/25 04:14:17;;;;;;;30.05;17.42;;;3.50;99.90;;;;;;6194180;23;20198;-84
2023/01/25 04:16:57;;;;;;;36.22;18.83;;;3.60;99.90;;;;;;6195557;23;20198;-86
2023/01/25 04:19:24;;;;;;;32.03;19.42;;;3.80;99.90;;;;;;6220155;23;20475;-86
2023/01/25 04:21:51;;;;;;;29.58;19.85;;;3.70;99.90;;;;;;6219605;23;20198;-86
2023/01/25 04:24:18;;;;;;;29.27;19.17;;;3.70;99.90;;;;;;6193815;23;20205;-85
2023/01/25 04:26:45;;;;;;;39.00;19.73;;;3.90;99.90;;;;;;6229830;23;20208;-86
2023/01/25 04:29:13;;;;;;;39.22;20.15;;;4.00;99.90;;;;;;6219356;23;20193;-88
2023/01/25 04:31:39;;;;;;;23.40;16.20;;;4.00;99.90;;;;;;6195774;23;20202;-87
2023/01/25 04:34:07;;;;;;;28.52;17.98;;;4.00;99.90;;;;;;6224214;23;20410;-90
2023/01/25 04:36:34;;;;;;;40.47;19.17;;;3.80;99.90;;;;;;6221601;23;20182;-87
2023/01/25 04:39:01;;;;;;;26.40;16.17;;;3.80;99.90;;;;;;6220843;23;20228;-87
2023/01/25 04:41:28;;;;;;;32.28;17.63;;;3.80;99.90;;;;;;6220657;23;20258;-86
2023/01/25 04:43:55;;;;;;;25.60;13.73;;;3.60;99.90;;;;;;6196251;23;20191;-88
2023/01/25 04:46:21;;;;;;;27.08;15.57;;;3.40;99.90;;;;;;6221270;23;20537;-83
2023/01/25 04:48:48;;;;;;;31.35;16.80;;;3.30;99.90;;;;;;6219779;23;20373;-83
2023/01/25 04:51:15;;;;;;;25.23;15.27;;;3.30;99.90;;;;;;6218919;23;20187;-85
2023/01/25 04:53:42;;;;;;;27.70;14.13;;;3.30;99.90;;;;;;6193984;23;20240;-83
2023/01/25 04:56:09;;;;;;;26.80;15.65;;;3.40;99.90;;;;;;6221606;23;20251;-86
2023/01/25 04:58:37;;;;;;;24.63;15.45;;;3.80;99.90;;;;;;6221207;23;20232;-86
2023/01/25 05:01:04;;;;;;;24.55;14.63;;;4.00;99.90;;;;;;6191278;23;20193;-83
2023/01/25 05:03:31;;;;;;;33.72;17.33;;;4.00;99.90;;;;;;6192660;23;20182;-84
2023/01/25 05:05:58;;;;;;;35.00;19.75;;;3.90;99.90;;;;;;6193395;23;20233;-87
2023/01/25 05:08:25;;;;;;;37.33;18.10;;;4.00;99.90;;;;;;6193436;23;20186;-87
2023/01/25 05:10:52;;;;;;;26.17;16.67;;;4.10;99.90;;;;;;6221325;23;20186;-86
2023/01/25 05:13:20;;;;;;;27.98;16.50;;;3.90;99.90;;;;;;6222356;23;20197;-87
2023/01/25 05:15:47;;;;;;;31.65;16.35;;;3.90;99.90;;;;;;6223905;23;20166;-87
2023/01/25 05:18:14;;;;;;;29.13;15.60;;;3.80;99.90;;;;;;6200757;23;20183;-86
2023/01/25 05:20:54;;;;;;;28.48;16.88;;;3.80;99.90;;;;;;6199124;23;20196;-82
2023/01/25 05:23:22;;;;;;;29.23;16.50;;;3.80;99.90;;;;;;6201501;23;20190;-87
2023/01/25 05:28:37;;;;;;;26.20;17.15;;;3.70;99.90;;;;;;6231564;23;20185;-86
2023/01/25 05:31:06;;;;;;;34.55;19.30;;;3.50;99.90;;;;;;6226909;23;20178;-85
2023/01/25 05:33:33;;;;;;;23.42;16.58;;;3.70;99.90;;;;;;6226863;23;20213;-84
2023/01/25 05:36:01;;;;;;;27.00;15.95;;;3.90;99.90;;;;;;6225534;23;20196;-87
2023/01/25 05:38:29;;;;;;;33.78;18.05;;;3.90;99.90;;;;;;6199079;23;20721;-86
2023/01/25 05:40:59;;;;;;;32.38;18.50;;;4.10;99.90;;;;;;6222927;23;20193;-85
2023/01/25 05:43:28;;;;;;;35.30;20.00;;;4.00;99.90;;;;;;6224162;23;20185;-83
2023/01/25 05:45:57;;;;;;;27.75;16.73;;;3.70;99.90;;;;;;6227284;23;20196;-84
2023/01/25 05:48:26;;;;;;;29.52;17.52;;;3.30;99.90;;;;;;6195936;23;20222;-85
2023/01/25 05:50:56;;;;;;;29.08;15.27;;;3.10;99.90;;;;;;6222625;23;20185;-86
2023/01/25 05:53:27;;;;;;;36.70;18.02;;;3.00;99.90;;;;;;6196143;23;20397;-85
2023/01/25 05:56:11;;;;;;;32.53;20.20;;;3.20;99.90;;;;;;6196778;23;20374;-84
2023/01/25 06:01:18;;;;;;;34.13;19.55;;;3.50;99.90;;;;;;6196253;23;20281;-84
2023/01/25 06:03:45;;;;;;;38.70;20.20;;;3.30;99.90;;;;;;6196986;23;20183;-86
2023/01/25 06:06:17;;;;;;;31.58;19.38;;;3.30;99.90;;;;;;6175272;23;20218;-84
2023/01/25 06:08:44;;;;;;;34.95;18.35;;;3.20;99.90;;;;;;6190839;23;20181;-83
2023/01/25 06:11:15;;;;;;;31.98;16.67;;;3.20;99.90;;;;;;6191796;23;20238;-88
2023/01/25 06:13:42;;;;;;;33.80;17.67;;;3.30;99.90;;;;;;6165290;23;20253;-86
2023/01/25 06:16:09;;;;;;;34.72;19.80;;;3.50;99.90;;;;;;6190155;23;20237;-86
2023/01/25 06:18:37;;;;;;;31.35;18.70;;;3.70;99.90;;;;;;6191380;23;20221;-85
2023/01/25 06:21:05;;;;;;;33.78;19.95;;;3.60;99.90;;;;;;6190082;23;20250;-89
2023/01/25 06:23:32;;;;;;;36.75;21.15;;;3.60;99.90;;;;;;6192148;23;20183;-86
2023/01/25 06:26:10;;;;;;;38.03;20.63;;;3.80;99.90;;;;;;6192100;23;20213;-86
2023/01/25 06:28:38;;;;;;;37.22;25.50;;;3.70;99.90;;;;;;6166237;23;20174;-85
2023/01/25 06:31:12;;;;;;;36.40;20.30;;;3.80;99.90;;;;;;6166727;23;20333;-86
2023/01/25 06:33:40;;;;;;;31.13;17.58;;;3.50;99.90;;;;;;6193839;23;20250;-87
2023/01/25 06:36:13;;;;;;;35.53;22.25;;;3.20;99.90;;;;;;6195813;23;20252;-87
2023/01/25 06:38:41;;;;;;;34.63;20.13;;;3.20;99.90;;;;;;6171754;23;20205;-85
2023/01/25 06:41:11;;;;;;;39.97;21.23;;;3.30;99.90;;;;;;6197625;23;20218;-90
2023/01/25 06:43:39;;;;;;;41.55;19.80;;;3.40;99.90;;;;;;6167873;23;20265;-90
2023/01/25 06:46:10;;;;;;;43.13;21.23;;;3.30;99.90;;;;;;6234628;23;20178;-89
2023/01/25 06:48:39;;;;;;;44.28;27.45;;;3.30;99.90;;;;;;6201306;23;20189;-89
2023/01/25 06:51:10;;;;;;;41.35;22.73;;;3.40;99.90;;;;;;6187471;23;20326;-92
2023/01/25 06:53:41;;;;;;;34.95;19.77;;;3.30;99.90;;;;;;6151144;23;20187;-89
2023/01/25 06:56:11;;;;;;;38.38;20.85;;;3.20;99.90;;;;;;6215265;23;20174;-90
2023/01/25 06:58:40;;;;;;;34.65;19.63;;;3.10;99.90;;;;;;6232553;23;20251;-88
2023/01/25 07:01:18;;;;;;;31.30;20.25;;;3.20;99.90;;;;;;6211209;23;20221;-88
2023/01/25 07:03:51;;;;;;;38.00;21.15;;;3.30;99.90;;;;;;6198668;23;20174;-88
2023/01/25 07:06:18;;;;;;;40.67;21.80;;;3.50;99.90;;;;;;6198386;23;20204;-90
2023/01/25 07:08:45;;;;;;;31.25;19.13;;;3.70;99.90;;;;;;6226812;23;20186;-88
2023/01/25 07:11:19;;;;;;;33.78;22.63;;;3.90;99.90;;;;;;6203566;23;20182;-89
2023/01/25 07:13:48;;;;;;;39.10;24.67;;;3.50;99.90;;;;;;6231460;23;20186;-89
2023/01/25 07:16:20;;;;;;;34.80;20.10;;;3.30;99.90;;;;;;6204905;23;20178;-87
2023/01/25 07:18:48;;;;;;;29.55;18.20;;;3.30;99.90;;;;;;6200971;23;20245;-88
2023/01/25 07:21:22;;;;;;;34.13;18.33;;;3.20;99.90;;;;;;6200425;23;20212;-90
2023/01/25 07:23:50;;;;;;;31.02;20.30;;;3.20;99.90;;;;;;6206390;23;20233;-88
2023/01/25 07:26:20;;;;;;;37.47;20.20;;;3.40;99.90;;;;;;6240225;23;20218;-91
2023/01/25 07:28:48;;;;;;;38.33;23.38;;;3.60;99.90;;;;;;6214914;23;20174;-90
2023/01/25 07:31:16;;;;;;;44.33;25.35;;;3.60;99.90;;;;;;6227361;23;20181;-88
2023/01/25 07:33:48;;;;;;;34.03;21.15;;;3.50;99.90;;;;;;6199586;23;20186;-87
2023/01/25 07:36:15;;;;;;;34.22;19.30;;;3.70;99.90;;;;;;6224364;23;20183;-87
2023/01/25 07:38:46;;;;;;;28.92;17.58;;;3.70;99.90;;;;;;6177034;23;20179;-90
2023/01/25 07:41:15;;;;;;;31.10;19.55;;;3.90;99.90;;;;;;6195116;23;20261;-89
2023/01/25 07:43:42;;;;;;;33.45;20.90;;;3.60;99.90;;;;;;6194839;23;20275;-87
2023/01/25 07:46:11;;;;;;;36.25;22.45;;;3.60;99.90;;;;;;6221807;23;20265;-88
2023/01/25 07:48:43;;;;;;;47.92;26.85;;;3.60;99.90;;;;;;6222833;23;20186;-86
2023/01/25 07:51:26;;;;;;;46.17;24.27;;;3.90;99.90;;;;;;6223413;23;20218;-88
2023/01/25 07:54:01;;;;;;;34.30;19.33;;;4.10;99.90;;;;;;6196881;23;20191;-88
2023/01/25 07:56:36;;;;;;;33.22;18.85;;;4.00;99.90;;;;;;6199412;23;20177;-86
2023/01/25 07:59:03;;;;;;;36.85;19.80;;;4.10;99.90;;;;;;6203260;23;20198;-86
2023/01/25 08:01:33;;;;;;;25.15;14.98;;;4.10;99.90;;;;;;6226429;23;20235;-87
2023/01/25 08:04:03;;;;;;;28.52;16.70;;;4.20;99.90;;;;;;6228246;23;20186;-90
2023/01/25 08:06:37;;;;;;;37.13;18.10;;;4.10;99.90;;;;;;6230534;23;20423;-88
2023/01/25 08:09:11;;;;;;;33.30;14.27;;;4.20;99.90;;;;;;6230953;23;20427;-88
2023/01/25 08:11:40;;;;;;;34.25;17.20;;;4.50;99.90;;;;;;6196917;23;20182;-88
2023/01/25 08:14:08;;;;;;;31.27;16.92;;;4.50;99.90;;;;;;6196184;23;20514;-88
2023/01/25 08:16:35;;;;;;;39.97;20.13;;;4.20;99.90;;;;;;6227794;23;20194;-87
2023/01/25 08:19:03;;;;;;;34.78;19.38;;;4.40;99.90;;;;;;6192718;23;20186;-88
2023/01/25 08:21:32;;;;;;;39.03;19.80;;;4.20;99.90;;;;;;6219046;23;20182;-88
2023/01/25 08:24:04;;;;;;;34.42;18.50;;;4.00;99.90;;;;;;6194880;23;20242;-86
2023/01/25 08:26:32;;;;;;;27.95;14.52;;;4.00;99.90;;;;;;6194111;23;20190;-87
2023/01/25 08:29:00;;;;;;;23.75;14.35;;;4.00;99.90;;;;;;6219070;23;20537;-88
2023/01/25 08:31:31;;;;;;;25.17;15.10;;;4.00;99.90;;;;;;6196081;23;20186;-88
2023/01/25 08:33:59;;;;;;;27.08;13.68;;;3.60;99.90;;;;;;6219483;23;20193;-87
2023/01/25 08:36:26;;;;;;;22.10;12.60;;;3.80;99.90;;;;;;6223191;23;20245;-90
2023/01/25 08:38:59;;;;;;;29.98;16.17;;;3.90;99.90;;;;;;6196052;23;20174;-89
2023/01/25 08:41:31;;;;;;;25.35;14.00;;;4.00;99.90;;;;;;6197251;23;20207;-88
2023/01/25 08:43:59;;;;;;;77.18;29.40;;;4.00;99.90;;;;;;6197944;23;20339;-90
2023/01/25 08:46:31;;;;;;;93.80;35.03;;;3.70;99.90;;;;;;6195968;23;20209;-87
2023/01/25 08:49:00;;;;;;;27.77;15.75;;;3.90;99.90;;;;;;6197899;23;20191;-92
2023/01/25 08:51:30;;;;;;;19.53;13.33;;;3.90;99.90;;;;;;6148866;23;1486944;-87
2023/01/25 08:54:07;;;;;;;30.42;14.95;;;3.70;99.90;;;;;;6225289;23;20420;-86
2023/01/25 08:56:36;;;;;;;29.10;17.45;;;3.80;99.90;;;;;;6199234;23;20172;-88
2023/01/25 08:59:04;;;;;;;22.08;12.48;;;4.00;99.90;;;;;;6225337;23;20189;-90
2023/01/25 09:01:35;;;;;;;25.77;13.23;;;3.90;99.90;;;;;;6224264;23;20171;-87
2023/01/25 09:04:02;;;;;;;18.08;10.80;;;3.80;99.90;;;;;;6196760;23;20201;-87
2023/01/25 09:06:32;;;;;;;18.20;9.88;;;3.90;99.90;;;;;;6200895;23;20239;-87
2023/01/25 09:09:00;;;;;;;22.38;12.02;;;4.00;99.90;;;;;;6224787;23;20286;-91
2023/01/25 09:11:33;;;;;;;16.77;11.00;;;4.30;99.90;;;;;;6200642;23;20191;-89
2023/01/25 09:14:00;;;;;;;82.05;29.50;;;4.50;99.90;;;;;;6197603;23;20214;-87
2023/01/25 09:16:27;;;;;;;21.45;13.00;;;4.80;99.90;;;;;;6197115;23;20183;-88
2023/01/25 09:19:05;;;;;;;19.92;11.20;;;4.70;99.90;;;;;;6224372;23;20191;-87
2023/01/25 09:21:34;;;;;;;24.70;11.55;;;4.50;99.90;;;;;;6223550;23;20455;-88
2023/01/25 09:24:00;;;;;;;14.20;10.70;;;4.40;99.90;;;;;;6222365;23;20193;-88
2023/01/25 09:26:39;;;;;;;24.85;14.90;;;4.40;99.90;;;;;;6197660;23;20183;-88
2023/01/25 09:29:11;;;;;;;23.20;14.85;;;4.40;99.90;;;;;;6196913;23;20201;-87
2023/01/25 09:31:42;;;;;;;19.63;13.43;;;4.40;99.90;;;;;;6202985;23;20178;-89
2023/01/25 09:34:12;;;;;;;20.00;12.05;;;4.20;99.90;;;;;;6235002;23;20177;-89
2023/01/25 09:36:39;;;;;;;20.73;12.40;;;4.00;99.90;;;;;;6216112;23;20239;-88
2023/01/25 09:44:52;;;;;;;26.70;16.25;;;4.10;99.90;;;;;;6206762;23;20190;-88
2023/01/25 09:50:17;;;;;;;25.17;16.38;;;3.80;99.90;;;;;;6202392;23;20202;-88
2023/01/25 09:53:15;;;;;;;31.48;16.23;;;3.90;99.90;;;;;;6232352;23;20193;-90
2023/01/25 09:55:49;;;;;;;30.85;16.13;;;4.10;99.90;;;;;;6231161;23;20570;-87
2023/01/25 09:58:29;;;;;;;35.83;17.65;;;4.20;99.90;;;;;;6205175;23;20532;-90
2023/01/25 10:01:40;;;;;;;43.97;20.83;;;4.50;99.90;;;;;;6202398;23;20183;-89
2023/01/25 10:04:21;;;;;;;24.77;15.25;;;5.00;99.90;;;;;;6167196;23;20175;-88
2023/01/25 10:07:15;;;;;;;37.22;19.48;;;5.40;99.90;;;;;;6224395;23;20261;-90
2023/01/25 10:09:52;;;;;;;26.73;15.07;;;5.10;99.90;;;;;;6180407;23;20179;-87
2023/01/25 10:12:23;;;;;;;18.98;13.70;;;4.90;99.90;;;;;;6199616;23;20174;-88
2023/01/25 10:14:51;;;;;;;24.98;12.88;;;4.70;99.90;;;;;;6199471;23;20228;-87
2023/01/25 10:17:40;;;;;;;24.75;13.60;;;4.70;99.90;;;;;;6203411;23;20171;-89
2023/01/25 10:20:33;;;;;;;21.95;14.05;;;4.30;99.90;;;;;;6200932;23;20182;-87
2023/01/25 10:23:43;;;;;;;28.58;15.50;;;4.40;99.90;;;;;;6200403;23;20174;-87
2023/01/25 10:26:22;;;;;;;23.25;15.00;;;4.50;99.90;;;;;;6104582;23;20204;-88
2023/01/25 10:28:55;;;;;;;33.08;16.73;;;4.80;99.90;;;;;;6220722;23;20180;-87
2023/01/25 10:31:43;;;;;;;25.40;14.25;;;5.20;99.90;;;;;;6222898;23;20180;-86
2023/01/25 10:34:23;;;;;;;26.13;13.32;;;5.00;99.90;;;;;;6202981;23;20413;-87
2023/01/25 10:36:55;;;;;;;22.30;13.40;;;5.10;99.90;;;;;;6204742;23;20192;-89
2023/01/25 10:39:44;;;;;;;18.00;12.23;;;4.90;99.90;;;;;;6223990;23;20182;-87
2023/01/25 10:42:15;;;;;;;23.70;13.88;;;4.70;99.90;;;;;;6225344;23;20183;-86
2023/01/25 10:44:44;;;;;;;19.30;13.68;;;4.70;99.90;;;;;;6226699;23;20194;-88
2023/01/25 10:47:22;;;;;;;23.70;14.05;;;4.50;99.90;;;;;;6223828;23;20179;-88
2023/01/25 10:49:52;;;;;;;16.60;11.88;;;4.40;99.90;;;;;;6198248;23;20173;-87
2023/01/25 10:52:28;;;;;;;15.30;10.13;;;4.40;99.90;;;;;;6223289;23;20185;-87
2023/01/25 10:55:17;;;;;;;18.00;10.25;;;4.20;99.90;;;;;;6198707;23;20423;-88
2023/01/25 10:57:58;;;;;;;32.25;15.63;;;4.40;99.90;;;;;;6225364;23;20549;-87
2023/01/25 11:00:36;;;;;;;42.55;19.50;;;4.70;99.90;;;;;;6198318;23;20175;-87
2023/01/25 11:03:06;;;;;;;22.08;12.10;;;4.80;99.90;;;;;;6224471;23;20190;-86
2023/01/25 11:05:38;;;;;;;19.65;13.07;;;5.10;99.90;;;;;;6222255;23;20181;-86
2023/01/25 11:08:31;;;;;;;27.92;16.63;;;5.40;99.90;;;;;;6222921;23;20183;-89
2023/01/25 11:11:24;;;;;;;23.35;16.65;;;5.80;99.90;;;;;;6226765;23;20160;-88
2023/01/25 11:14:03;;;;;;;20.92;13.38;;;5.80;99.90;;;;;;6227443;23;20426;-87
2023/01/25 11:16:43;;;;;;;17.17;11.10;;;5.60;99.90;;;;;;6231338;23;20179;-87
2023/01/25 11:21:58;;;;;;;18.50;11.50;;;5.40;99.90;;;;;;6227909;23;20214;-89
2023/01/25 11:24:31;;;;;;;28.25;13.10;;;5.10;99.90;;;;;;6234635;23;20180;-87
2023/01/25 11:27:22;;;;;;;15.02;10.70;;;4.70;99.90;;;;;;6211406;23;20167;-90
2023/01/25 11:30:11;;;;;;;20.42;12.98;;;4.80;99.90;;;;;;6210861;23;20240;-88
2023/01/25 11:32:40;;;;;;;18.55;11.48;;;4.70;99.90;;;;;;6228978;23;20278;-88
2023/01/25 11:35:19;;;;;;;20.80;13.25;;;4.60;99.90;;;;;;6207224;23;20202;-89
2023/01/25 11:38:15;;;;;;;15.45;11.30;;;4.50;99.90;;;;;;6207951;23;20189;-91
2023/01/25 11:40:55;;;;;;;19.00;13.05;;;4.60;99.90;;;;;;6230279;23;20179;-87
2023/01/25 11:43:31;;;;;;;21.80;12.75;;;4.80;99.90;;;;;;6200859;23;20190;-88
2023/01/25 11:46:35;;;;;;;25.10;14.18;;;5.20;99.90;;;;;;6204084;23;20191;-91
2023/01/25 11:49:26;;;;;;;26.55;15.40;;;5.00;99.90;;;;;;6210682;23;20219;-88
2023/01/25 11:52:51;;;;;;;23.25;14.23;;;5.00;99.90;;;;;;6239229;23;20218;-91
2023/01/25 11:55:33;;;;;;;24.48;14.05;;;5.00;99.90;;;;;;6115406;23;20200;-88
2023/01/25 11:58:30;;;;;;;21.30;13.38;;;4.90;99.90;;;;;;6115402;23;20218;-89
2023/01/25 12:01:09;;;;;;;17.35;11.73;;;4.90;99.90;;;;;;6210675;23;20518;-88
2023/01/25 12:04:16;;;;;;;20.25;12.27;;;5.20;99.90;;;;;;6207084;23;20167;-88
2023/01/25 12:07:04;;;;;;;18.48;13.02;;;5.40;99.90;;;;;;6231814;23;20164;-89
2023/01/25 12:10:02;;;;;;;21.58;12.60;;;5.70;99.90;;;;;;6205562;23;20468;-87
2023/01/25 12:12:53;;;;;;;17.55;11.65;;;5.80;99.90;;;;;;6236401;23;20167;-88
2023/01/25 12:15:48;;;;;;;18.20;10.52;;;5.80;99.90;;;;;;6220191;23;20207;-88
2023/01/25 12:19:06;;;;;;;19.08;13.40;;;5.90;99.90;;;;;;6237670;23;20171;-88
2023/01/25 12:22:20;;;;;;;16.98;10.20;;;5.80;99.90;;;;;;6239215;23;20201;-89
2023/01/25 12:25:13;;;;;;;16.42;11.50;;;5.30;99.90;;;;;;6238837;23;20190;-90
2023/01/25 12:28:10;;;;;;;18.75;11.70;;;5.00;99.90;;;;;;6230341;23;20199;-88
2023/01/25 12:31:02;;;;;;;19.00;12.20;;;5.00;99.90;;;;;;6231205;23;20174;-87
2023/01/25 12:33:58;;;;;;;17.75;11.80;;;5.50;99.90;;;;;;6201824;23;20239;-89
2023/01/25 12:36:49;;;;;;;22.83;12.70;;;5.60;99.90;;;;;;6202383;23;20209;-90
2023/01/25 12:39:29;;;;;;;21.80;12.50;;;5.50;99.90;;;;;;6215379;23;20171;-90
2023/01/25 12:42:20;;;;;;;20.17;12.40;;;5.00;99.90;;;;;;6240286;23;20156;-90
2023/01/25 12:45:01;;;;;;;25.08;13.70;;;5.00;99.90;;;;;;6238981;23;20255;-91
2023/01/25 12:47:35;;;;;;;25.77;13.73;;;5.10;99.90;;;;;;6210864;23;20187;-87
2023/01/25 12:50:23;;;;;;;19.83;12.82;;;5.10;99.90;;;;;;6212571;23;20178;-89
2023/01/25 12:53:11;;;;;;;14.82;10.98;;;5.00;99.90;;;;;;6203341;23;20202;-89
2023/01/25 12:55:54;;;;;;;25.13;14.68;;;5.20;99.90;;;;;;6206857;23;20243;-89
2023/01/25 12:58:51;;;;;;;18.00;12.32;;;5.50;99.90;;;;;;6206553;23;20215;-89
2023/01/25 13:01:35;;;;;;;20.40;13.70;;;5.50;99.90;;;;;;6202664;23;20184;-88
2023/01/25 13:04:17;;;;;;;16.73;12.18;;;5.60;99.90;;;;;;6202923;23;20234;-89
2023/01/25 13:07:10;;;;;;;20.80;12.50;;;5.70;99.90;;;;;;6207459;23;20166;-90
2023/01/25 13:10:25;;;;;;;17.70;13.55;;;5.80;99.90;;;;;;6208464;23;20199;-88
2023/01/25 13:13:12;;;;;;;14.30;8.70;;;5.90;99.90;;;;;;6240407;23;20155;-91
2023/01/25 13:15:46;;;;;;;15.07;10.07;;;5.90;99.90;;;;;;6217340;23;20243;-91
2023/01/25 13:18:23;;;;;;;14.55;10.15;;;5.60;99.90;;;;;;6215731;23;20183;-90
2023/01/25 13:21:48;;;;;;;20.80;12.40;;;5.10;99.90;;;;;;6240297;23;20191;-90
2023/01/25 13:24:55;;;;;;;19.10;13.38;;;5.10;99.90;;;;;;6240596;23;20222;-87
2023/01/25 13:27:27;;;;;;;17.70;11.70;;;5.20;99.90;;;;;;6194343;23;20175;-91